createdAt,value
2023-05-09T00:01:14.771Z,8.26
2023-05-09T00:02:18.857Z,8.23
2023-05-09T00:03:22.949Z,8.23
2023-05-09T00:04:27.520Z,8.20
2023-05-09T00:05:31.424Z,8.18
2023-05-09T00:06:35.647Z,8.16
2023-05-09T00:07:40.297Z,8.15
2023-05-09T00:08:44.866Z,8.10
2023-05-09T00:09:49.085Z,8.08
2023-05-09T00:10:56.214Z,8.10
2023-05-09T00:12:00.289Z,8.14
2023-05-09T00:13:04.815Z,8.14
2023-05-09T00:14:14.055Z,8.09
2023-05-09T00:15:19.199Z,8.07
2023-05-09T00:16:24.472Z,8.03
2023-05-09T00:17:28.867Z,7.95
2023-05-09T00:18:34.162Z,7.98
2023-05-09T00:19:39.265Z,7.96
2023-05-09T00:20:44.804Z,7.96
2023-05-09T00:21:49.641Z,7.90
2023-05-09T00:22:53.746Z,7.90
2023-05-09T00:24:01.281Z,7.92
2023-05-09T00:25:11.738Z,7.86
2023-05-09T00:26:17.027Z,7.86
2023-05-09T00:27:21.705Z,7.90
2023-05-09T00:28:25.469Z,7.88
2023-05-09T00:29:29.203Z,7.86
2023-05-09T00:30:34.855Z,7.81
2023-05-09T00:31:40.127Z,7.80
2023-05-09T00:32:44.167Z,7.79
2023-05-09T00:33:56.820Z,7.71
2023-05-09T00:35:08.007Z,7.68
2023-05-09T00:36:22.453Z,7.66
2023-05-09T00:37:26.937Z,7.66
2023-05-09T00:38:37.037Z,7.64
2023-05-09T00:39:41.092Z,7.66
2023-05-09T00:40:45.894Z,7.63
2023-05-09T00:41:49.975Z,7.61
2023-05-09T00:42:53.910Z,7.61
2023-05-09T00:44:01.757Z,7.61
2023-05-09T00:45:10.404Z,7.61
2023-05-09T00:46:14.567Z,7.57
2023-05-09T00:47:18.945Z,7.51
2023-05-09T00:48:23.297Z,7.51
2023-05-09T00:49:27.668Z,7.51
2023-05-09T00:50:32.083Z,7.46
2023-05-09T00:51:38.879Z,7.47
2023-05-09T00:52:43.130Z,7.50
2023-05-09T00:53:47.375Z,7.50
2023-05-09T00:54:56.894Z,7.46
2023-05-09T00:56:01.066Z,7.45
2023-05-09T00:57:08.482Z,7.46
2023-05-09T00:58:13.763Z,7.41
2023-05-09T00:59:21.081Z,7.43
2023-05-09T01:00:25.697Z,7.42
2023-05-09T01:01:30.325Z,7.39
2023-05-09T01:02:35.320Z,7.41
2023-05-09T01:03:42.051Z,7.39
2023-05-09T01:04:47.431Z,7.36
2023-05-09T01:06:42.178Z,7.34
2023-05-09T01:08:13.471Z,7.34
2023-05-09T01:09:44.241Z,7.31
2023-05-09T01:11:30.517Z,7.23
2023-05-09T01:13:10.889Z,7.15
2023-05-09T01:14:36.719Z,7.12
2023-05-09T01:16:08.921Z,7.09
2023-05-09T01:17:31.334Z,7.08
2023-05-09T01:18:51.935Z,7.12
2023-05-09T01:20:14.860Z,7.08
2023-05-09T01:21:29.366Z,7.05
2023-05-09T01:22:36.842Z,7.00
2023-05-09T01:24:17.700Z,7.02
2023-05-09T01:26:03.419Z,6.97
2023-05-09T01:27:45.417Z,6.90
2023-05-09T01:29:21.568Z,6.90
2023-05-09T01:30:27.753Z,6.90
2023-05-09T01:31:36.979Z,6.89
2023-05-09T01:32:46.952Z,6.91
2023-05-09T01:34:09.221Z,6.88
2023-05-09T01:35:16.409Z,6.87
2023-05-09T01:36:23.127Z,6.88
2023-05-09T01:37:38.311Z,6.89
2023-05-09T01:38:45.033Z,6.86
2023-05-09T01:39:53.954Z,6.88
2023-05-09T01:41:00.991Z,6.84
2023-05-09T01:42:09.102Z,6.85
2023-05-09T01:43:19.523Z,6.84
2023-05-09T01:44:25.934Z,6.78
2023-05-09T01:45:31.511Z,6.80
2023-05-09T01:46:37.361Z,6.77
2023-05-09T01:47:46.128Z,6.75
2023-05-09T01:48:53.729Z,6.78
2023-05-09T01:49:58.046Z,6.76
2023-05-09T01:51:04.275Z,6.74
2023-05-09T01:52:17.201Z,6.66
2023-05-09T01:53:24.856Z,6.56
2023-05-09T01:54:30.916Z,6.57
2023-05-09T01:55:39.958Z,6.55
2023-05-09T01:56:45.788Z,6.63
2023-05-09T01:57:51.117Z,6.62
2023-05-09T01:58:58.820Z,6.62
2023-05-09T02:00:08.119Z,6.62
2023-05-09T02:01:16.538Z,6.57
2023-05-09T02:02:21.918Z,6.51
2023-05-09T02:03:27.028Z,6.53
2023-05-09T02:04:32.590Z,6.53
2023-05-09T02:05:37.939Z,6.54
2023-05-09T02:06:44.934Z,6.55
2023-05-09T02:07:50.242Z,6.50
2023-05-09T02:08:54.288Z,6.52
2023-05-09T02:10:00.842Z,6.51
2023-05-09T02:11:05.684Z,6.51
2023-05-09T02:12:10.154Z,6.51
2023-05-09T02:13:14.273Z,6.52
2023-05-09T02:14:18.442Z,6.51
2023-05-09T02:15:23.302Z,6.53
2023-05-09T02:16:28.818Z,6.52
2023-05-09T02:17:32.935Z,6.54
2023-05-09T02:18:37.418Z,6.55
2023-05-09T02:19:41.252Z,6.52
2023-05-09T02:20:45.334Z,6.50
2023-05-09T02:21:52.271Z,6.52
2023-05-09T02:22:56.322Z,6.48
2023-05-09T02:24:00.795Z,6.52
2023-05-09T02:25:10.005Z,6.51
2023-05-09T02:26:15.334Z,6.48
2023-05-09T02:27:20.905Z,6.45
2023-05-09T02:28:30.631Z,6.44
2023-05-09T02:29:44.702Z,6.44
2023-05-09T02:30:54.092Z,6.43
2023-05-09T02:32:00.674Z,6.43
2023-05-09T02:33:10.875Z,6.42
2023-05-09T02:34:15.422Z,6.36
2023-05-09T02:35:22.027Z,6.34
2023-05-09T02:36:28.220Z,6.39
2023-05-09T02:37:34.339Z,6.35
2023-05-09T02:38:38.318Z,6.36
2023-05-09T02:39:42.784Z,6.34
2023-05-09T02:40:50.903Z,6.28
2023-05-09T02:41:56.113Z,6.23
2023-05-09T02:43:01.124Z,6.27
2023-05-09T02:44:05.555Z,6.26
2023-05-09T02:45:11.298Z,6.28
2023-05-09T02:46:16.642Z,6.22
2023-05-09T02:47:21.649Z,6.25
2023-05-09T02:48:26.056Z,6.23
2023-05-09T02:49:32.499Z,6.22
2023-05-09T02:50:39.735Z,6.15
2023-05-09T02:51:43.746Z,6.15
2023-05-09T02:52:47.785Z,6.17
2023-05-09T02:53:52.496Z,6.19
2023-05-09T02:55:00.708Z,6.18
2023-05-09T02:56:04.828Z,6.14
2023-05-09T02:57:08.878Z,6.12
2023-05-09T02:58:16.392Z,6.10
2023-05-09T02:59:20.504Z,6.11
2023-05-09T03:00:26.280Z,6.16
2023-05-09T03:01:31.476Z,6.19
2023-05-09T03:02:36.982Z,6.19
2023-05-09T03:03:41.527Z,6.17
2023-05-09T03:04:46.922Z,6.16
2023-05-09T03:05:51.201Z,6.18
2023-05-09T03:06:55.332Z,6.21
2023-05-09T03:07:58.961Z,6.17
2023-05-09T03:09:06.445Z,6.17
2023-05-09T03:10:13.753Z,6.19
2023-05-09T03:11:17.707Z,6.14
2023-05-09T03:12:22.456Z,6.16
2023-05-09T03:13:27.156Z,6.16
2023-05-09T03:14:31.528Z,6.19
2023-05-09T03:15:35.205Z,6.18
2023-05-09T03:16:39.173Z,6.15
2023-05-09T03:17:42.795Z,6.15
2023-05-09T03:18:46.768Z,6.16
2023-05-09T03:19:51.480Z,6.17
2023-05-09T03:20:55.314Z,6.12
2023-05-09T03:21:58.867Z,6.11
2023-05-09T03:23:02.745Z,6.14
2023-05-09T03:24:08.250Z,6.14
2023-05-09T03:25:12.337Z,6.07
2023-05-09T03:26:16.248Z,6.06
2023-05-09T03:27:20.582Z,6.08
2023-05-09T03:28:24.374Z,6.07
2023-05-09T03:29:28.250Z,6.08
2023-05-09T03:30:32.818Z,6.07
2023-05-09T03:31:36.562Z,5.99
2023-05-09T03:32:43.584Z,6.04
2023-05-09T03:33:47.582Z,6.06
2023-05-09T03:34:51.984Z,6.03
2023-05-09T03:35:56.532Z,6.03
2023-05-09T03:37:01.729Z,6.01
2023-05-09T03:38:05.842Z,6.01
2023-05-09T03:39:13.382Z,6.05
2023-05-09T03:40:18.548Z,6.00
2023-05-09T03:41:26.343Z,6.05
2023-05-09T03:42:30.389Z,6.01
2023-05-09T03:43:34.267Z,6.00
2023-05-09T03:44:38.881Z,6.01
2023-05-09T03:45:43.779Z,6.02
2023-05-09T03:46:47.959Z,6.01
2023-05-09T03:47:52.766Z,6.01
2023-05-09T03:48:57.170Z,6.03
2023-05-09T03:50:02.386Z,6.03
2023-05-09T03:51:06.457Z,6.01
2023-05-09T03:52:11.068Z,6.00
2023-05-09T03:53:14.845Z,5.99
2023-05-09T03:54:18.802Z,6.00
2023-05-09T03:55:24.256Z,6.03
2023-05-09T03:56:30.656Z,6.08
2023-05-09T03:57:36.133Z,6.10
2023-05-09T03:58:43.214Z,6.11
2023-05-09T03:59:47.248Z,6.12
2023-05-09T04:00:51.659Z,6.16
2023-05-09T04:01:55.837Z,6.18
2023-05-09T04:03:00.677Z,6.14
2023-05-09T04:04:08.033Z,6.18
2023-05-09T04:05:12.668Z,6.21
2023-05-09T04:06:17.292Z,6.27
2023-05-09T04:07:21.089Z,6.29
2023-05-09T04:08:25.299Z,6.33
2023-05-09T04:09:29.303Z,6.39
2023-05-09T04:10:33.591Z,6.39
2023-05-09T04:11:44.289Z,6.43
2023-05-09T04:12:48.395Z,6.45
2023-05-09T04:13:52.532Z,6.50
2023-05-09T04:14:56.686Z,6.51
2023-05-09T04:16:00.871Z,6.50
2023-05-09T04:17:05.683Z,6.52
2023-05-09T04:18:09.562Z,6.52
2023-05-09T04:19:13.748Z,6.49
2023-05-09T04:20:18.431Z,6.49
2023-05-09T04:21:22.084Z,6.54
2023-05-09T04:22:27.849Z,6.53
2023-05-09T04:23:34.740Z,6.55
2023-05-09T04:24:38.931Z,6.57
2023-05-09T04:25:42.800Z,6.59
2023-05-09T04:26:46.886Z,6.62
2023-05-09T04:27:51.825Z,6.62
2023-05-09T04:28:55.977Z,6.62
2023-05-09T04:30:00.577Z,6.63
2023-05-09T04:31:04.507Z,6.69
2023-05-09T04:32:09.074Z,6.70
2023-05-09T04:33:15.645Z,6.74
2023-05-09T04:34:19.978Z,6.73
2023-05-09T04:35:24.260Z,6.75
2023-05-09T04:36:28.116Z,6.79
2023-05-09T04:37:33.259Z,6.82
2023-05-09T04:38:36.973Z,6.87
2023-05-09T04:39:41.037Z,6.93
2023-05-09T04:40:45.640Z,6.93
2023-05-09T04:41:50.356Z,6.98
2023-05-09T04:42:57.455Z,7.03
2023-05-09T04:44:02.152Z,7.07
2023-05-09T04:45:08.538Z,7.03
2023-05-09T04:46:13.011Z,7.07
2023-05-09T04:47:17.430Z,7.10
2023-05-09T04:48:21.650Z,7.11
2023-05-09T04:49:26.138Z,7.19
2023-05-09T04:50:31.432Z,7.26
2023-05-09T04:51:35.540Z,7.28
2023-05-09T04:52:39.171Z,7.36
2023-05-09T04:53:45.042Z,7.41
2023-05-09T04:54:51.064Z,7.49
2023-05-09T04:55:55.185Z,7.60
2023-05-09T04:57:09.970Z,7.68
2023-05-09T04:58:30.075Z,7.85
2023-05-09T04:59:34.026Z,7.99
2023-05-09T05:00:38.103Z,8.14
2023-05-09T05:01:42.409Z,8.25
2023-05-09T05:02:46.910Z,8.41
2023-05-09T05:03:51.374Z,8.53
2023-05-09T05:05:10.136Z,8.67
2023-05-09T05:06:15.604Z,8.81
2023-05-09T05:07:19.833Z,8.94
2023-05-09T05:08:23.936Z,9.02
2023-05-09T05:09:30.390Z,9.18
2023-05-09T05:10:36.864Z,9.35
2023-05-09T05:11:47.741Z,9.44
2023-05-09T05:13:01.576Z,9.61
2023-05-09T05:14:08.200Z,9.71
2023-05-09T05:15:13.129Z,9.87
2023-05-09T05:16:17.375Z,10.04
2023-05-09T05:17:22.083Z,10.15
2023-05-09T05:18:25.756Z,10.31
2023-05-09T05:19:29.702Z,10.46
2023-05-09T05:20:34.420Z,10.64
2023-05-09T05:21:38.104Z,10.76
2023-05-09T05:22:41.803Z,10.70
2023-05-09T05:23:45.629Z,10.90
2023-05-09T05:24:49.907Z,11.08
2023-05-09T05:25:53.797Z,11.31
2023-05-09T05:26:57.394Z,11.50
2023-05-09T05:28:01.472Z,11.64
2023-05-09T05:29:05.354Z,11.69
2023-05-09T05:30:10.095Z,11.80
2023-05-09T05:31:15.585Z,11.96
2023-05-09T05:32:20.802Z,11.98
2023-05-09T05:33:27.713Z,12.00
2023-05-09T05:34:31.544Z,12.12
2023-05-09T05:35:35.792Z,12.10
2023-05-09T05:36:40.348Z,12.27
2023-05-09T05:37:49.054Z,12.33
2023-05-09T05:38:52.917Z,12.45
2023-05-09T05:39:57.294Z,12.53
2023-05-09T05:41:01.453Z,12.58
2023-05-09T05:42:05.663Z,12.71
2023-05-09T05:43:10.210Z,12.80
2023-05-09T05:44:14.406Z,12.96
2023-05-09T05:45:18.338Z,13.12
2023-05-09T05:46:23.966Z,13.19
2023-05-09T05:47:29.522Z,13.34
2023-05-09T05:48:34.678Z,13.52
2023-05-09T05:49:39.044Z,13.54
2023-05-09T05:50:43.053Z,13.63
2023-05-09T05:51:47.567Z,13.70
2023-05-09T05:52:51.907Z,13.73
2023-05-09T05:53:55.998Z,13.95
2023-05-09T05:55:00.217Z,13.98
2023-05-09T05:56:04.721Z,14.03
2023-05-09T05:57:09.640Z,13.98
2023-05-09T05:58:13.440Z,14.19
2023-05-09T05:59:17.435Z,14.34
2023-05-09T06:00:22.062Z,14.41
2023-05-09T06:01:26.837Z,14.61
2023-05-09T06:02:31.090Z,14.77
2023-05-09T06:03:35.264Z,14.85
2023-05-09T06:04:39.142Z,14.82
2023-05-09T06:05:48.760Z,14.90
2023-05-09T06:06:52.611Z,14.95
2023-05-09T06:07:57.329Z,14.79
2023-05-09T06:09:03.787Z,14.72
2023-05-09T06:10:16.057Z,14.82
2023-05-09T06:11:20.143Z,14.88
2023-05-09T06:12:26.668Z,14.87
2023-05-09T06:13:32.232Z,14.92
2023-05-09T06:14:36.540Z,14.82
2023-05-09T06:15:41.448Z,14.84
2023-05-09T06:16:46.330Z,15.03
2023-05-09T06:17:52.819Z,15.20
2023-05-09T06:18:58.478Z,15.13
2023-05-09T06:20:02.488Z,15.08
2023-05-09T06:21:11.528Z,15.16
2023-05-09T06:22:17.433Z,15.14
2023-05-09T06:23:22.838Z,15.07
2023-05-09T06:24:35.663Z,15.11
2023-05-09T06:25:43.918Z,15.16
2023-05-09T06:26:50.851Z,15.15
2023-05-09T06:27:54.664Z,15.30
2023-05-09T06:28:58.876Z,15.35
2023-05-09T06:30:14.087Z,15.34
2023-05-09T06:31:27.884Z,15.67
2023-05-09T06:32:34.919Z,15.76
2023-05-09T06:33:38.950Z,15.82
2023-05-09T06:34:42.633Z,16.11
2023-05-09T06:35:47.393Z,16.31
2023-05-09T06:36:51.366Z,16.34
2023-05-09T06:37:55.269Z,16.53
2023-05-09T06:39:00.153Z,16.73
2023-05-09T06:40:04.614Z,16.93
2023-05-09T06:41:11.359Z,17.06
2023-05-09T06:42:15.785Z,17.11
2023-05-09T06:43:29.600Z,17.10
2023-05-09T06:44:33.513Z,17.15
2023-05-09T06:45:37.525Z,17.14
2023-05-09T06:46:48.199Z,17.26
2023-05-09T06:47:52.517Z,17.23
2023-05-09T06:48:56.729Z,17.34
2023-05-09T06:50:00.699Z,17.56
2023-05-09T06:51:05.287Z,17.62
2023-05-09T06:52:13.359Z,17.89
2023-05-09T06:53:22.681Z,18.15
2023-05-09T06:54:26.648Z,18.25
2023-05-09T06:55:30.784Z,18.31
2023-05-09T06:56:34.863Z,18.58
2023-05-09T06:57:41.110Z,18.99
2023-05-09T06:58:44.896Z,19.02
2023-05-09T06:59:48.893Z,19.23
2023-05-09T07:00:57.193Z,19.28
2023-05-09T07:02:00.990Z,19.29
2023-05-09T07:03:07.999Z,19.26
2023-05-09T07:04:11.807Z,19.23
2023-05-09T07:05:16.599Z,19.35
2023-05-09T07:06:20.779Z,19.56
2023-05-09T07:07:24.962Z,19.86
2023-05-09T07:08:28.926Z,20.09
2023-05-09T07:09:32.878Z,20.27
2023-05-09T07:10:38.803Z,20.17
2023-05-09T07:11:42.768Z,20.29
2023-05-09T07:12:47.306Z,20.43
2023-05-09T07:13:51.634Z,20.48
2023-05-09T07:14:55.486Z,20.71
2023-05-09T07:15:59.295Z,20.68
2023-05-09T07:17:21.148Z,20.90
2023-05-09T07:18:27.381Z,21.37
2023-05-09T07:19:31.338Z,21.54
2023-05-09T07:20:35.026Z,21.87
2023-05-09T07:21:38.797Z,22.18
2023-05-09T07:22:42.890Z,22.51
2023-05-09T07:23:46.870Z,22.40
2023-05-09T07:24:51.265Z,22.43
2023-05-09T07:25:59.106Z,22.73
2023-05-09T07:27:06.446Z,23.04
2023-05-09T07:28:12.770Z,22.83
2023-05-09T07:29:18.512Z,22.65
2023-05-09T07:30:22.530Z,22.30
2023-05-09T07:31:26.420Z,22.29
2023-05-09T07:32:38.159Z,22.23
2023-05-09T07:33:42.810Z,22.30
2023-05-09T07:34:47.833Z,22.26
2023-05-09T07:35:53.300Z,22.37
2023-05-09T07:36:58.900Z,22.39
2023-05-09T07:38:02.985Z,22.70
2023-05-09T07:39:08.332Z,23.03
2023-05-09T07:40:13.126Z,23.07
2023-05-09T07:41:18.020Z,23.39
2023-05-09T07:42:23.125Z,23.68
2023-05-09T07:43:27.430Z,24.07
2023-05-09T07:44:31.956Z,24.14
2023-05-09T07:45:36.791Z,24.29
2023-05-09T07:46:42.571Z,24.40
2023-05-09T07:47:47.107Z,24.48
2023-05-09T07:48:51.023Z,24.53
2023-05-09T07:49:54.878Z,24.69
2023-05-09T07:50:58.873Z,24.91
2023-05-09T07:52:03.655Z,25.29
2023-05-09T07:53:09.324Z,25.52
2023-05-09T07:54:13.201Z,25.47
2023-05-09T07:55:17.216Z,25.15
2023-05-09T07:56:22.788Z,25.17
2023-05-09T07:57:29.827Z,24.82
2023-05-09T07:58:33.841Z,24.73
2023-05-09T07:59:38.654Z,24.66
2023-05-09T08:00:43.297Z,24.83
2023-05-09T08:01:48.007Z,25.00
2023-05-09T08:02:53.469Z,25.21
2023-05-09T08:03:58.014Z,25.18
2023-05-09T08:05:05.569Z,24.88
2023-05-09T08:06:16.028Z,24.42
2023-05-09T08:07:19.861Z,24.04
2023-05-09T08:08:24.754Z,24.19
2023-05-09T08:09:29.443Z,23.78
2023-05-09T08:10:34.203Z,23.45
2023-05-09T08:11:38.482Z,23.05
2023-05-09T08:12:42.369Z,22.80
2023-05-09T08:13:47.098Z,22.26
2023-05-09T08:14:51.426Z,22.23
2023-05-09T08:15:55.357Z,22.16
2023-05-09T08:16:59.669Z,21.73
2023-05-09T08:18:04.265Z,21.83
2023-05-09T08:19:08.476Z,21.96
2023-05-09T08:20:14.256Z,21.92
2023-05-09T08:21:22.294Z,22.15
2023-05-09T08:22:26.853Z,22.22
2023-05-09T08:23:30.982Z,22.52
2023-05-09T08:24:35.427Z,22.64
2023-05-09T08:25:41.626Z,22.90
2023-05-09T08:26:46.059Z,23.26
2023-05-09T08:27:53.065Z,23.35
2023-05-09T08:28:57.520Z,23.30
2023-05-09T08:30:01.973Z,23.01
2023-05-09T08:31:05.902Z,23.18
2023-05-09T08:32:10.294Z,23.08
2023-05-09T08:33:17.463Z,22.92
2023-05-09T08:34:21.576Z,22.81
2023-05-09T08:35:28.696Z,22.59
2023-05-09T08:36:32.913Z,22.24
2023-05-09T08:37:37.489Z,22.34
2023-05-09T08:38:41.811Z,22.26
2023-05-09T08:39:46.989Z,21.96
2023-05-09T08:41:00.436Z,22.05
2023-05-09T08:42:04.773Z,22.24
2023-05-09T08:43:09.007Z,22.47
2023-05-09T08:44:13.908Z,22.27
2023-05-09T08:45:26.494Z,22.41
2023-05-09T08:46:39.330Z,22.20
2023-05-09T08:47:45.876Z,21.65
2023-05-09T08:48:51.701Z,21.34
2023-05-09T08:49:56.351Z,20.71
2023-05-09T08:51:01.922Z,20.39
2023-05-09T08:52:06.383Z,19.95
2023-05-09T08:53:12.409Z,19.34
2023-05-09T08:54:17.372Z,19.04
2023-05-09T08:55:22.252Z,18.61
2023-05-09T08:56:30.435Z,18.30
2023-05-09T08:57:38.020Z,18.05
2023-05-09T08:58:43.617Z,17.78
2023-05-09T08:59:50.351Z,17.61
2023-05-09T09:00:58.026Z,17.46
2023-05-09T09:02:08.209Z,17.32
2023-05-09T09:03:13.157Z,17.20
2023-05-09T09:04:20.856Z,17.21
2023-05-09T09:05:40.703Z,17.23
2023-05-09T09:06:47.349Z,17.12
2023-05-09T09:07:52.340Z,17.09
2023-05-09T09:09:00.172Z,17.07
2023-05-09T09:10:06.110Z,16.99
2023-05-09T09:11:15.221Z,16.98
2023-05-09T09:12:26.781Z,17.03
2023-05-09T09:13:32.163Z,16.94
2023-05-09T09:14:41.556Z,17.07
2023-05-09T09:15:48.277Z,17.12
2023-05-09T09:16:54.738Z,17.16
2023-05-09T09:18:09.528Z,17.17
2023-05-09T09:19:17.802Z,17.14
2023-05-09T09:20:27.266Z,17.04
2023-05-09T09:21:33.900Z,16.99
2023-05-09T09:22:43.378Z,16.92
2023-05-09T09:23:49.554Z,16.64
2023-05-09T09:24:53.876Z,16.55
2023-05-09T09:26:00.343Z,16.63
2023-05-09T09:27:08.319Z,16.68
2023-05-09T09:28:12.787Z,16.70
2023-05-09T09:29:20.697Z,16.62
2023-05-09T09:30:26.508Z,16.68
2023-05-09T09:31:33.823Z,16.61
2023-05-09T09:32:40.245Z,16.69
2023-05-09T09:33:44.684Z,16.69
2023-05-09T09:34:52.775Z,16.63
2023-05-09T09:35:59.748Z,16.66
2023-05-09T09:37:08.056Z,16.63
2023-05-09T09:38:12.408Z,16.67
2023-05-09T09:39:17.619Z,16.68
2023-05-09T09:40:26.722Z,16.68
2023-05-09T09:41:35.854Z,16.76
2023-05-09T09:42:49.480Z,16.78
2023-05-09T09:43:53.739Z,16.74
2023-05-09T09:45:03.876Z,16.67
2023-05-09T09:46:10.019Z,16.60
2023-05-09T09:47:14.969Z,16.49
2023-05-09T09:48:19.438Z,16.34
2023-05-09T09:49:26.943Z,16.29
2023-05-09T09:50:32.673Z,16.32
2023-05-09T09:51:36.880Z,16.27
2023-05-09T09:52:51.744Z,16.32
2023-05-09T09:53:57.745Z,16.30
2023-05-09T09:55:05.268Z,16.28
2023-05-09T09:56:09.989Z,16.35
2023-05-09T09:57:37.721Z,16.45
2023-05-09T09:58:42.951Z,16.50
2023-05-09T09:59:59.985Z,16.58
2023-05-09T10:01:09.697Z,16.57
2023-05-09T10:02:14.055Z,16.53
2023-05-09T10:03:18.068Z,16.51
2023-05-09T10:04:22.847Z,16.50
2023-05-09T10:05:31.881Z,16.48
2023-05-09T10:06:35.833Z,16.46
2023-05-09T10:07:40.179Z,16.52
2023-05-09T10:08:49.585Z,16.54
2023-05-09T10:09:54.102Z,16.58
2023-05-09T10:11:00.076Z,16.64
2023-05-09T10:12:09.101Z,16.65
2023-05-09T10:13:14.113Z,16.64
2023-05-09T10:14:21.824Z,16.71
2023-05-09T10:15:28.728Z,16.72
2023-05-09T10:16:43.541Z,16.72
2023-05-09T10:17:56.861Z,16.77
2023-05-09T10:19:01.085Z,16.83
2023-05-09T10:20:08.532Z,16.80
2023-05-09T10:21:16.080Z,16.86
2023-05-09T10:22:25.054Z,16.90
2023-05-09T10:23:33.147Z,16.90
2023-05-09T10:25:05.967Z,16.91
2023-05-09T10:26:29.189Z,16.84
2023-05-09T10:27:36.991Z,16.85
2023-05-09T10:28:45.207Z,16.85
2023-05-09T10:30:11.491Z,16.78
2023-05-09T10:31:28.097Z,16.84
2023-05-09T10:32:39.713Z,16.80
2023-05-09T10:33:51.573Z,16.84
2023-05-09T10:35:05.325Z,16.89
2023-05-09T10:36:10.868Z,16.94
2023-05-09T10:37:17.007Z,16.96
2023-05-09T10:38:22.262Z,16.97
2023-05-09T10:39:28.111Z,16.95
2023-05-09T10:40:34.588Z,16.85
2023-05-09T10:41:41.752Z,16.82
2023-05-09T10:42:47.997Z,16.76
2023-05-09T10:43:53.128Z,16.73
2023-05-09T10:44:58.141Z,16.69
2023-05-09T10:46:04.863Z,16.66
2023-05-09T10:47:10.154Z,16.66
2023-05-09T10:48:14.885Z,16.63
2023-05-09T10:49:20.591Z,16.62
2023-05-09T10:50:29.655Z,16.59
2023-05-09T10:51:34.156Z,16.57
2023-05-09T10:53:09.014Z,16.61
2023-05-09T10:54:33.771Z,16.75
2023-05-09T10:55:48.385Z,16.78
2023-05-09T10:56:52.188Z,16.83
2023-05-09T10:57:56.220Z,16.79
2023-05-09T10:59:01.347Z,16.82
2023-05-09T11:00:06.843Z,16.83
2023-05-09T11:01:11.256Z,16.86
2023-05-09T11:02:21.256Z,16.87
2023-05-09T11:03:28.323Z,16.80
2023-05-09T11:04:36.574Z,16.83
2023-05-09T11:05:41.066Z,16.84
2023-05-09T11:06:55.757Z,16.87
2023-05-09T11:08:31.310Z,16.89
2023-05-09T11:09:38.269Z,16.96
2023-05-09T11:10:45.206Z,17.05
2023-05-09T11:11:55.127Z,17.11
2023-05-09T11:13:01.916Z,17.18
2023-05-09T11:14:06.069Z,17.19
2023-05-09T11:15:14.678Z,17.18
2023-05-09T11:16:19.282Z,17.16
2023-05-09T11:17:23.247Z,17.20
2023-05-09T11:18:29.329Z,17.21
2023-05-09T11:20:02.219Z,17.14
2023-05-09T11:21:12.557Z,17.09
2023-05-09T11:22:28.386Z,17.07
2023-05-09T11:23:33.450Z,17.06
2023-05-09T11:24:39.237Z,17.17
2023-05-09T11:25:47.040Z,17.23
2023-05-09T11:26:51.858Z,17.24
2023-05-09T11:28:03.357Z,17.27
2023-05-09T11:29:07.741Z,17.31
2023-05-09T11:30:19.194Z,17.39
2023-05-09T11:31:23.362Z,17.40
2023-05-09T11:32:41.456Z,17.44
2023-05-09T11:33:55.583Z,17.46
2023-05-09T11:35:15.530Z,17.54
2023-05-09T11:36:34.017Z,17.59
2023-05-09T11:38:04.194Z,17.65
2023-05-09T11:39:11.526Z,17.73
2023-05-09T11:40:23.117Z,17.83
2023-05-09T11:41:28.702Z,17.85
2023-05-09T11:42:33.208Z,17.89
2023-05-09T11:43:39.173Z,17.96
2023-05-09T11:44:43.546Z,17.92
2023-05-09T11:45:57.856Z,17.86
2023-05-09T11:47:05.552Z,17.88
2023-05-09T11:48:26.595Z,17.84
2023-05-09T11:49:35.366Z,17.80
2023-05-09T11:50:41.291Z,17.86
2023-05-09T11:51:45.490Z,17.89
2023-05-09T11:52:50.285Z,17.90
2023-05-09T11:53:54.276Z,17.84
2023-05-09T11:54:59.973Z,17.84
2023-05-09T11:56:06.541Z,17.82
2023-05-09T11:57:11.294Z,17.85
2023-05-09T11:58:18.024Z,17.83
2023-05-09T11:59:21.987Z,17.81
2023-05-09T12:00:27.099Z,17.78
2023-05-09T12:01:32.098Z,17.80
2023-05-09T12:02:37.648Z,17.75
2023-05-09T12:03:48.218Z,17.80
2023-05-09T12:04:57.270Z,17.82
2023-05-09T12:06:04.445Z,17.82
2023-05-09T12:07:13.067Z,17.86
2023-05-09T12:08:17.669Z,17.91
2023-05-09T12:09:22.537Z,17.85
2023-05-09T12:10:27.075Z,17.82
2023-05-09T12:11:35.206Z,17.69
2023-05-09T12:12:51.183Z,17.77
2023-05-09T12:13:57.022Z,17.78
2023-05-09T12:15:09.002Z,17.79
2023-05-09T12:16:13.210Z,17.82
2023-05-09T12:17:17.300Z,17.78
2023-05-09T12:18:22.141Z,17.84
2023-05-09T12:19:28.239Z,17.90
2023-05-09T12:20:53.135Z,17.92
2023-05-09T12:22:00.574Z,17.87
2023-05-09T12:23:04.395Z,17.81
2023-05-09T12:24:08.771Z,17.80
2023-05-09T12:25:16.821Z,17.81
2023-05-09T12:26:23.268Z,17.83
2023-05-09T12:27:29.285Z,17.83
2023-05-09T12:28:34.915Z,17.76
2023-05-09T12:29:40.693Z,17.69
2023-05-09T12:30:45.827Z,17.63
2023-05-09T12:31:51.253Z,17.63
2023-05-09T12:32:56.575Z,17.57
2023-05-09T12:34:01.879Z,17.56
2023-05-09T12:35:08.896Z,17.58
2023-05-09T12:36:14.734Z,17.63
2023-05-09T12:37:20.264Z,17.69
2023-05-09T12:38:25.925Z,17.76
2023-05-09T12:39:30.647Z,17.81
2023-05-09T12:40:36.237Z,17.81
2023-05-09T12:42:00.588Z,17.86
2023-05-09T12:43:07.503Z,17.92
2023-05-09T12:44:25.507Z,17.96
2023-05-09T12:45:34.019Z,17.96
2023-05-09T12:46:38.612Z,17.86
2023-05-09T12:47:42.983Z,17.80
2023-05-09T12:48:50.840Z,17.79
2023-05-09T12:50:02.759Z,17.66
2023-05-09T12:51:08.746Z,17.58
2023-05-09T12:52:20.848Z,17.53
2023-05-09T12:53:30.918Z,17.52
2023-05-09T12:54:37.893Z,17.55
2023-05-09T12:55:42.547Z,17.53
2023-05-09T12:56:48.368Z,17.45
2023-05-09T12:58:06.667Z,17.52
2023-05-09T12:59:15.155Z,17.50
2023-05-09T13:00:22.898Z,17.49
2023-05-09T13:01:30.482Z,17.45
2023-05-09T13:02:43.118Z,17.44
2023-05-09T13:03:54.093Z,17.32
2023-05-09T13:05:11.984Z,17.32
2023-05-09T13:06:16.724Z,17.33
2023-05-09T13:07:22.006Z,17.33
2023-05-09T13:08:28.455Z,17.30
2023-05-09T13:09:34.395Z,17.30
2023-05-09T13:10:45.157Z,17.34
2023-05-09T13:11:52.670Z,17.41
2023-05-09T13:12:57.724Z,17.41
2023-05-09T13:14:04.638Z,17.47
2023-05-09T13:15:12.127Z,17.46
2023-05-09T13:16:17.646Z,17.48
2023-05-09T13:17:22.171Z,17.55
2023-05-09T13:18:27.105Z,17.57
2023-05-09T13:19:34.014Z,17.61
2023-05-09T13:20:38.841Z,17.64
2023-05-09T13:21:42.957Z,17.63
2023-05-09T13:22:50.620Z,17.66
2023-05-09T13:23:54.618Z,17.69
2023-05-09T13:24:59.266Z,17.68
2023-05-09T13:26:06.315Z,17.58
2023-05-09T13:27:13.607Z,17.57
2023-05-09T13:28:17.686Z,17.54
2023-05-09T13:29:22.899Z,17.52
2023-05-09T13:30:28.401Z,17.47
2023-05-09T13:31:34.642Z,17.47
2023-05-09T13:32:38.792Z,17.50
2023-05-09T13:33:42.847Z,17.39
2023-05-09T13:34:52.906Z,17.34
2023-05-09T13:35:57.521Z,17.34
2023-05-09T13:37:01.628Z,17.28
2023-05-09T13:38:06.102Z,17.25
2023-05-09T13:39:11.062Z,17.29
2023-05-09T13:40:16.847Z,17.26
2023-05-09T13:41:22.627Z,17.20
2023-05-09T13:42:27.298Z,17.21
2023-05-09T13:43:31.443Z,17.19
2023-05-09T13:44:36.820Z,17.20
2023-05-09T13:45:41.374Z,17.18
2023-05-09T13:46:49.759Z,17.25
2023-05-09T13:47:55.499Z,17.31
2023-05-09T13:49:00.739Z,17.36
2023-05-09T13:50:08.596Z,17.43
2023-05-09T13:51:12.944Z,17.43
2023-05-09T13:52:17.506Z,17.48
2023-05-09T13:53:21.916Z,17.52
2023-05-09T13:54:27.954Z,17.58
2023-05-09T13:55:32.496Z,17.55
2023-05-09T13:56:37.722Z,17.53
2023-05-09T13:57:41.912Z,17.45
2023-05-09T13:58:45.642Z,17.46
2023-05-09T13:59:50.071Z,17.41
2023-05-09T14:00:54.000Z,17.37
2023-05-09T14:02:00.405Z,17.39
2023-05-09T14:03:05.373Z,17.38
2023-05-09T14:04:09.637Z,17.33
2023-05-09T14:05:14.311Z,17.28
2023-05-09T14:06:18.328Z,17.26
2023-05-09T14:07:22.088Z,17.22
2023-05-09T14:08:26.228Z,17.11
2023-05-09T14:09:30.713Z,17.09
2023-05-09T14:10:34.825Z,17.09
2023-05-09T14:11:38.684Z,17.09
2023-05-09T14:12:44.703Z,17.08
2023-05-09T14:13:48.619Z,17.05
2023-05-09T14:14:52.599Z,17.04
2023-05-09T14:16:00.124Z,17.06
2023-05-09T14:17:07.826Z,17.10
2023-05-09T14:18:17.128Z,17.14
2023-05-09T14:19:23.911Z,17.12
2023-05-09T14:20:40.919Z,17.15
2023-05-09T14:21:58.663Z,17.26
2023-05-09T14:23:05.331Z,17.28
2023-05-09T14:24:15.686Z,17.32
2023-05-09T14:25:21.266Z,17.35
2023-05-09T14:26:33.130Z,17.40
2023-05-09T14:27:37.336Z,17.42
2023-05-09T14:28:45.388Z,17.40
2023-05-09T14:29:53.448Z,17.34
2023-05-09T14:31:02.731Z,17.34
2023-05-09T14:32:08.288Z,17.32
2023-05-09T14:33:12.792Z,17.39
2023-05-09T14:34:19.677Z,17.43